Terminal Aerodrome Forecast
Issued by NWS

Home | Current Version | Previous Version | Text Only | Print | Product List | Glossary On
Versions: 1 2 3 4 5 6 7 8 9 10 11 12 13 14 15 16 17 18 19 20 21 22 23 24
000
FTUS41 KBOX 222333 AAA
TAFFMH
TAF AMD
KFMH 222333Z 2300/2324 17008KT 4SM -RA BR OVC008
     FM231000 18005KT 2SM BR VCSH OVC003
     FM231400 10006KT 2SM BR VCSH OVC005
     FM231500 07006KT 3SM BR VCSH BKN008
     FM231800 05007KT P6SM VCSH BKN008=

USA.gov is the U.S. government's official web portal to all federal, state and local government web resources and services.